sensor_id;sensor_type;location;lat;lon;timestamp;pressure;altitude;pressure_sealevel;temperature;humidity
51359;BME280;37448;51.588;7.248;2023-02-04T00:01:50;102484.28;;;5.05;89.35
51359;BME280;37448;51.588;7.248;2023-02-04T00:03:50;102487.84;;;5.08;90.07
51359;BME280;37448;51.588;7.248;2023-02-04T00:05:51;102499.03;;;5.07;89.52
51359;BME280;37448;51.588;7.248;2023-02-04T00:07:51;102495.63;;;5.08;89.35
51359;BME280;37448;51.588;7.248;2023-02-04T00:09:52;102493.84;;;5.07;89.87
51359;BME280;37448;51.588;7.248;2023-02-04T00:11:52;102509.41;;;5.07;89.53
51359;BME280;37448;51.588;7.248;2023-02-04T00:13:53;102515.50;;;5.09;89.56
51359;BME280;37448;51.588;7.248;2023-02-04T00:15:53;102515.47;;;5.08;88.51
51359;BME280;37448;51.588;7.248;2023-02-04T00:17:53;102516.41;;;5.10;90.02
51359;BME280;37448;51.588;7.248;2023-02-04T00:19:54;102515.56;;;5.11;89.83
51359;BME280;37448;51.588;7.248;2023-02-04T00:21:54;102523.38;;;5.12;90.53
51359;BME280;37448;51.588;7.248;2023-02-04T00:23:55;102525.91;;;5.11;89.96
51359;BME280;37448;51.588;7.248;2023-02-04T00:25:55;102527.69;;;5.12;90.74
51359;BME280;37448;51.588;7.248;2023-02-04T00:27:55;102532.78;;;5.10;89.85
51359;BME280;37448;51.588;7.248;2023-02-04T00:29:56;102530.22;;;5.10;89.80
51359;BME280;37448;51.588;7.248;2023-02-04T00:31:56;102535.28;;;5.07;88.27
51359;BME280;37448;51.588;7.248;2023-02-04T00:33:57;102538.81;;;5.09;89.72
51359;BME280;37448;51.588;7.248;2023-02-04T00:35:58;102538.81;;;5.09;90.35
51359;BME280;37448;51.588;7.248;2023-02-04T00:37:59;102537.94;;;5.09;89.84
51359;BME280;37448;51.588;7.248;2023-02-04T00:39:59;102541.38;;;5.08;89.55
51359;BME280;37448;51.588;7.248;2023-02-04T00:42:00;102543.13;;;5.09;89.59
51359;BME280;37448;51.588;7.248;2023-02-04T00:44:00;102533.63;;;5.09;89.51
51359;BME280;37448;51.588;7.248;2023-02-04T00:46:00;102535.34;;;5.09;90.80
51359;BME280;37448;51.588;7.248;2023-02-04T00:48:01;102540.47;;;5.07;89.75
51359;BME280;37448;51.588;7.248;2023-02-04T00:50:01;102543.13;;;5.09;89.99
51359;BME280;37448;51.588;7.248;2023-02-04T00:52:03;102537.88;;;5.07;89.89
51359;BME280;37448;51.588;7.248;2023-02-04T00:54:05;102541.31;;;5.06;89.93
51359;BME280;37448;51.588;7.248;2023-02-04T00:56:05;102536.19;;;5.08;90.24
51359;BME280;37448;51.588;7.248;2023-02-04T00:58:05;102545.66;;;5.07;89.93
51359;BME280;37448;51.588;7.248;2023-02-04T01:00:06;102542.19;;;5.07;90.22
51359;BME280;37448;51.588;7.248;2023-02-04T01:02:07;102549.97;;;5.07;90.53
51359;BME280;37448;51.588;7.248;2023-02-04T01:04:08;102549.06;;;5.06;91.06
51359;BME280;37448;51.588;7.248;2023-02-04T01:06:09;102552.50;;;5.05;89.85
51359;BME280;37448;51.588;7.248;2023-02-04T01:08:09;102548.19;;;5.06;89.52
51359;BME280;37448;51.588;7.248;2023-02-04T01:10:10;102551.66;;;5.06;90.32
51359;BME280;37448;51.588;7.248;2023-02-04T01:12:11;102555.91;;;5.04;90.39
51359;BME280;37448;51.588;7.248;2023-02-04T01:14:11;102551.66;;;5.06;90.68
51359;BME280;37448;51.588;7.248;2023-02-04T01:16:13;102556.78;;;5.05;90.29
51359;BME280;37448;51.588;7.248;2023-02-04T01:18:13;102562.75;;;5.02;89.34
51359;BME280;37448;51.588;7.248;2023-02-04T01:20:14;102556.59;;;4.98;88.40
51359;BME280;37448;51.588;7.248;2023-02-04T01:22:15;102561.00;;;5.01;89.71
51359;BME280;37448;51.588;7.248;2023-02-04T01:24:15;102561.00;;;5.01;89.09
51359;BME280;37448;51.588;7.248;2023-02-04T01:26:34;102566.00;;;4.95;87.08
51359;BME280;37448;51.588;7.248;2023-02-04T01:28:34;102573.03;;;4.99;89.73
51359;BME280;37448;51.588;7.248;2023-02-04T01:30:35;102569.59;;;5.00;90.73
51359;BME280;37448;51.588;7.248;2023-02-04T01:32:35;102568.72;;;4.99;90.85
51359;BME280;37448;51.588;7.248;2023-02-04T01:34:36;102583.38;;;4.99;90.28
51359;BME280;37448;51.588;7.248;2023-02-04T01:36:36;102586.84;;;4.99;90.14
51359;BME280;37448;51.588;7.248;2023-02-04T01:38:36;102576.47;;;4.99;89.66
51359;BME280;37448;51.588;7.248;2023-02-04T01:40:38;102583.38;;;4.99;90.61
51359;BME280;37448;51.588;7.248;2023-02-04T01:42:39;102576.53;;;5.01;90.72
51359;BME280;37448;51.588;7.248;2023-02-04T01:44:41;102586.00;;;5.00;90.23
51359;BME280;37448;51.588;7.248;2023-02-04T01:46:42;102579.97;;;5.00;89.47
51359;BME280;37448;51.588;7.248;2023-02-04T01:48:42;102583.47;;;5.02;90.55
51359;BME280;37448;51.588;7.248;2023-02-04T01:50:42;102589.50;;;5.01;89.54
51359;BME280;37448;51.588;7.248;2023-02-04T01:52:43;102587.75;;;5.01;90.14
51359;BME280;37448;51.588;7.248;2023-02-04T01:54:44;102593.00;;;5.03;89.99
51359;BME280;37448;51.588;7.248;2023-02-04T01:56:45;102603.38;;;5.03;89.96
51359;BME280;37448;51.588;7.248;2023-02-04T01:58:47;102610.31;;;5.04;90.60
51359;BME280;37448;51.588;7.248;2023-02-04T02:00:48;102616.31;;;5.03;89.42
51359;BME280;37448;51.588;7.248;2023-02-04T02:02:50;102607.72;;;5.04;89.86
51359;BME280;37448;51.588;7.248;2023-02-04T02:04:52;102618.06;;;5.04;90.19
51359;BME280;37448;51.588;7.248;2023-02-04T02:06:56;102611.22;;;5.06;90.62
51359;BME280;37448;51.588;7.248;2023-02-04T02:08:57;102610.31;;;5.04;89.96
51359;BME280;37448;51.588;7.248;2023-02-04T02:10:58;102604.34;;;5.07;90.93
51359;BME280;37448;51.588;7.248;2023-02-04T02:12:59;102601.63;;;5.03;90.23
51359;BME280;37448;51.588;7.248;2023-02-04T02:15:00;102599.03;;;5.02;90.02
51359;BME280;37448;51.588;7.248;2023-02-04T02:17:01;102599.94;;;5.04;91.03
51359;BME280;37448;51.588;7.248;2023-02-04T02:19:01;102609.47;;;5.05;91.29
51359;BME280;37448;51.588;7.248;2023-02-04T02:21:05;102616.41;;;5.06;91.33
51359;BME280;37448;51.588;7.248;2023-02-04T02:25:32;102625.84;;;5.04;91.42
51359;BME280;37448;51.588;7.248;2023-02-04T02:27:32;102622.34;;;5.03;92.03
51359;BME280;37448;51.588;7.248;2023-02-04T02:29:34;102623.16;;;5.01;90.93
51359;BME280;37448;51.588;7.248;2023-02-04T02:31:35;102625.75;;;5.01;91.84
51359;BME280;37448;51.588;7.248;2023-02-04T02:33:35;102630.94;;;5.01;91.44
51359;BME280;37448;51.588;7.248;2023-02-04T02:35:36;102627.41;;;4.99;90.97
51359;BME280;37448;51.588;7.248;2023-02-04T02:37:36;102629.25;;;5.03;92.33
51359;BME280;37448;51.588;7.248;2023-02-04T02:39:38;102624.91;;;5.02;92.63
51359;BME280;37448;51.588;7.248;2023-02-04T02:41:39;102624.81;;;4.99;92.47
51359;BME280;37448;51.588;7.248;2023-02-04T02:43:40;102630.97;;;5.02;93.05
51359;BME280;37448;51.588;7.248;2023-02-04T02:45:40;102628.25;;;4.98;91.37
51359;BME280;37448;51.588;7.248;2023-02-04T02:47:41;102635.19;;;4.99;92.43
51359;BME280;37448;51.588;7.248;2023-02-04T02:49:42;102640.34;;;4.99;92.41
51359;BME280;37448;51.588;7.248;2023-02-04T02:51:43;102636.09;;;5.01;92.83
51359;BME280;37448;51.588;7.248;2023-02-04T02:53:45;102640.25;;;4.96;91.96
51359;BME280;37448;51.588;7.248;2023-02-04T02:55:48;102635.13;;;4.97;92.84
51359;BME280;37448;51.588;7.248;2023-02-04T02:57:53;102636.84;;;4.97;92.72
51359;BME280;37448;51.588;7.248;2023-02-04T02:59:54;102630.75;;;4.96;92.50
51359;BME280;37448;51.588;7.248;2023-02-04T03:01:57;102638.50;;;4.95;91.90
51359;BME280;37448;51.588;7.248;2023-02-04T03:04:01;102635.94;;;4.96;91.92
51359;BME280;37448;51.588;7.248;2023-02-04T03:06:14;102636.59;;;4.91;91.59
51359;BME280;37448;51.588;7.248;2023-02-04T03:08:16;102641.78;;;4.91;91.43
51359;BME280;37448;51.588;7.248;2023-02-04T03:10:17;102636.78;;;4.95;93.03
51359;BME280;37448;51.588;7.248;2023-02-04T03:12:18;102640.19;;;4.94;92.79
51359;BME280;37448;51.588;7.248;2023-02-04T03:14:19;102641.09;;;4.95;92.28
51359;BME280;37448;51.588;7.248;2023-02-04T03:16:20;102645.31;;;4.93;91.96
51359;BME280;37448;51.588;7.248;2023-02-04T03:18:21;102646.13;;;4.92;91.78
51359;BME280;37448;51.588;7.248;2023-02-04T03:20:23;102641.03;;;4.93;92.87
51359;BME280;37448;51.588;7.248;2023-02-04T03:22:24;102641.78;;;4.91;92.01
51359;BME280;37448;51.588;7.248;2023-02-04T03:24:26;102638.25;;;4.88;91.75
51359;BME280;37448;51.588;7.248;2023-02-04T03:26:26;102645.19;;;4.89;92.13
51359;BME280;37448;51.588;7.248;2023-02-04T03:28:27;102639.19;;;4.91;92.52
51359;BME280;37448;51.588;7.248;2023-02-04T03:30:27;102637.44;;;4.89;92.62
51359;BME280;37448;51.588;7.248;2023-02-04T03:32:27;102653.91;;;4.92;92.81
51359;BME280;37448;51.588;7.248;2023-02-04T03:34:28;102650.34;;;4.88;91.74
51359;BME280;37448;51.588;7.248;2023-02-04T03:36:28;102656.44;;;4.90;93.24
51359;BME280;37448;51.588;7.248;2023-02-04T03:38:29;102662.50;;;4.91;92.76
51359;BME280;37448;51.588;7.248;2023-02-04T03:40:29;102665.91;;;4.89;92.05
51359;BME280;37448;51.588;7.248;2023-02-04T03:42:30;102661.56;;;4.88;91.94
51359;BME280;37448;51.588;7.248;2023-02-04T03:44:30;102659.06;;;4.92;92.85
51359;BME280;37448;51.588;7.248;2023-02-04T03:46:30;102665.06;;;4.89;92.42
51359;BME280;37448;51.588;7.248;2023-02-04T03:48:31;102658.97;;;4.88;92.81
51359;BME280;37448;51.588;7.248;2023-02-04T03:50:31;102662.41;;;4.87;91.87
51359;BME280;37448;51.588;7.248;2023-02-04T03:52:31;102661.53;;;4.87;91.96
51359;BME280;37448;51.588;7.248;2023-02-04T03:54:32;102666.63;;;4.85;90.98
51359;BME280;37448;51.588;7.248;2023-02-04T03:56:32;102669.31;;;4.87;91.36
51359;BME280;37448;51.588;7.248;2023-02-04T03:58:32;102670.16;;;4.87;92.23
51359;BME280;37448;51.588;7.248;2023-02-04T04:00:33;102673.66;;;4.88;92.42
51359;BME280;37448;51.588;7.248;2023-02-04T04:02:33;102674.50;;;4.88;92.43
51359;BME280;37448;51.588;7.248;2023-02-04T04:04:33;102671.09;;;4.89;92.93
51359;BME280;37448;51.588;7.248;2023-02-04T04:06:34;102683.19;;;4.89;92.70
51359;BME280;37448;51.588;7.248;2023-02-04T04:08:35;102684.84;;;4.87;92.37
51359;BME280;37448;51.588;7.248;2023-02-04T04:10:35;102679.59;;;4.85;91.64
51359;BME280;37448;51.588;7.248;2023-02-04T04:12:36;102680.53;;;4.87;92.12
51359;BME280;37448;51.588;7.248;2023-02-04T04:14:36;102685.69;;;4.87;92.17
51359;BME280;37448;51.588;7.248;2023-02-04T04:16:36;102694.25;;;4.85;91.52
51359;BME280;37448;51.588;7.248;2023-02-04T04:18:37;102694.28;;;4.86;91.98
51359;BME280;37448;51.588;7.248;2023-02-04T04:20:37;102691.72;;;4.86;92.06
51359;BME280;37448;51.588;7.248;2023-02-04T04:22:38;102702.06;;;4.86;92.45
51359;BME280;37448;51.588;7.248;2023-02-04T04:24:38;102694.25;;;4.85;91.64
51359;BME280;37448;51.588;7.248;2023-02-04T04:26:39;102694.25;;;4.85;92.60
51359;BME280;37448;51.588;7.248;2023-02-04T04:28:39;102703.72;;;4.84;92.34
51359;BME280;37448;51.588;7.248;2023-02-04T04:30:39;102707.13;;;4.83;91.79
51359;BME280;37448;51.588;7.248;2023-02-04T04:32:40;102713.22;;;4.84;91.16
51359;BME280;37448;51.588;7.248;2023-02-04T04:34:40;102713.31;;;4.87;92.23
51359;BME280;37448;51.588;7.248;2023-02-04T04:36:41;102715.72;;;4.82;91.42
51359;BME280;37448;51.588;7.248;2023-02-04T04:38:41;102719.16;;;4.81;91.70
51359;BME280;37448;51.588;7.248;2023-02-04T04:40:41;102716.66;;;4.84;91.84
51359;BME280;37448;51.588;7.248;2023-02-04T04:42:42;102714.91;;;4.83;92.08
51359;BME280;37448;51.588;7.248;2023-02-04T04:44:43;102718.38;;;4.84;92.24
51359;BME280;37448;51.588;7.248;2023-02-04T04:46:44;102710.56;;;4.82;91.94
51359;BME280;37448;51.588;7.248;2023-02-04T04:48:45;102712.22;;;4.80;90.69
51359;BME280;37448;51.588;7.248;2023-02-04T04:50:45;102708.91;;;4.84;91.69
51359;BME280;37448;51.588;7.248;2023-02-04T04:52:45;102714.91;;;4.83;92.23
51359;BME280;37448;51.588;7.248;2023-02-04T04:54:46;102719.22;;;4.83;92.01
51359;BME280;37448;51.588;7.248;2023-02-04T04:56:46;102719.16;;;4.81;91.77
51359;BME280;37448;51.588;7.248;2023-02-04T04:58:46;102721.81;;;4.83;91.83
51359;BME280;37448;51.588;7.248;2023-02-04T05:00:47;102728.75;;;4.84;92.72
51359;BME280;37448;51.588;7.248;2023-02-04T05:02:47;102727.63;;;4.77;91.26
51359;BME280;37448;51.588;7.248;2023-02-04T05:04:48;102719.03;;;4.78;91.46
51359;BME280;37448;51.588;7.248;2023-02-04T05:06:48;102732.91;;;4.80;91.74
51359;BME280;37448;51.588;7.248;2023-02-04T05:08:48;102738.13;;;4.82;92.71
51359;BME280;37448;51.588;7.248;2023-02-04T05:10:49;102738.19;;;4.83;93.16
51359;BME280;37448;51.588;7.248;2023-02-04T05:12:49;102745.91;;;4.82;92.75
51359;BME280;37448;51.588;7.248;2023-02-04T05:14:49;102751.09;;;4.82;92.59
51359;BME280;37448;51.588;7.248;2023-02-04T05:16:50;102749.31;;;4.81;92.27
51359;BME280;37448;51.588;7.248;2023-02-04T05:18:50;102744.97;;;4.80;92.13
51359;BME280;37448;51.588;7.248;2023-02-04T05:20:50;102743.28;;;4.80;92.03
51359;BME280;37448;51.588;7.248;2023-02-04T05:22:51;102749.38;;;4.82;92.75
51359;BME280;37448;51.588;7.248;2023-02-04T05:24:51;102755.41;;;4.81;92.12
51359;BME280;37448;51.588;7.248;2023-02-04T05:26:52;102759.56;;;4.78;91.67
51359;BME280;37448;51.588;7.248;2023-02-04T05:28:52;102754.50;;;4.81;91.91
51359;BME280;37448;51.588;7.248;2023-02-04T05:30:52;102765.75;;;4.81;92.63
51359;BME280;37448;51.588;7.248;2023-02-04T05:32:53;102761.41;;;4.80;91.86
51359;BME280;37448;51.588;7.248;2023-02-04T05:34:53;102763.16;;;4.81;92.53
51359;BME280;37448;51.588;7.248;2023-02-04T05:36:54;102764.81;;;4.79;91.83
51359;BME280;37448;51.588;7.248;2023-02-04T05:38:54;102764.03;;;4.82;92.48
51359;BME280;37448;51.588;7.248;2023-02-04T05:40:54;102769.28;;;4.83;92.94
51359;BME280;37448;51.588;7.248;2023-02-04T05:42:55;102765.75;;;4.81;92.31
51359;BME280;37448;51.588;7.248;2023-02-04T05:44:55;102769.16;;;4.80;91.73
51359;BME280;37448;51.588;7.248;2023-02-04T05:46:55;102772.69;;;4.82;92.55
51359;BME280;37448;51.588;7.248;2023-02-04T05:48:56;102769.16;;;4.80;92.04
51359;BME280;37448;51.588;7.248;2023-02-04T05:50:56;102775.28;;;4.82;91.98
51359;BME280;37448;51.588;7.248;2023-02-04T05:52:57;102771.78;;;4.82;92.72
51359;BME280;37448;51.588;7.248;2023-02-04T05:54:57;102772.69;;;4.82;92.88
51359;BME280;37448;51.588;7.248;2023-02-04T05:56:57;102778.75;;;4.83;92.92
51359;BME280;37448;51.588;7.248;2023-02-04T05:58:58;102785.56;;;4.81;92.51
51359;BME280;37448;51.588;7.248;2023-02-04T06:00:59;102788.13;;;4.79;91.87
51359;BME280;37448;51.588;7.248;2023-02-04T06:03:00;102791.53;;;4.78;91.86
51359;BME280;37448;51.588;7.248;2023-02-04T06:05:01;102795.09;;;4.82;92.40
51359;BME280;37448;51.588;7.248;2023-02-04T06:07:01;102795.81;;;4.78;92.07
51359;BME280;37448;51.588;7.248;2023-02-04T06:09:02;102798.47;;;4.79;92.34
51359;BME280;37448;51.588;7.248;2023-02-04T06:11:03;102801.91;;;4.80;92.36
51359;BME280;37448;51.588;7.248;2023-02-04T06:13:03;102807.16;;;4.81;92.87
51359;BME280;37448;51.588;7.248;2023-02-04T06:15:04;102803.75;;;4.82;92.78
51359;BME280;37448;51.588;7.248;2023-02-04T06:17:04;102807.28;;;4.84;92.96
51359;BME280;37448;51.588;7.248;2023-02-04T06:19:05;102821.06;;;4.83;92.86
51359;BME280;37448;51.588;7.248;2023-02-04T06:21:05;102815.88;;;4.83;92.74
51359;BME280;37448;51.588;7.248;2023-02-04T06:23:05;102821.06;;;4.83;92.87
51359;BME280;37448;51.588;7.248;2023-02-04T06:25:06;102827.06;;;4.82;92.80
51359;BME280;37448;51.588;7.248;2023-02-04T06:27:07;102825.28;;;4.81;92.36
51359;BME280;37448;51.588;7.248;2023-02-04T06:29:07;102814.13;;;4.82;92.50
51359;BME280;37448;51.588;7.248;2023-02-04T06:31:07;102816.63;;;4.81;92.53
51359;BME280;37448;51.588;7.248;2023-02-04T06:33:08;102816.63;;;4.81;92.08
51359;BME280;37448;51.588;7.248;2023-02-04T06:35:09;102821.94;;;4.84;92.53
51359;BME280;37448;51.588;7.248;2023-02-04T06:37:12;102819.38;;;4.84;93.15
51359;BME280;37448;51.588;7.248;2023-02-04T06:39:12;102825.28;;;4.81;93.07
51359;BME280;37448;51.588;7.248;2023-02-04T06:41:13;102818.41;;;4.82;92.93
51359;BME280;37448;51.588;7.248;2023-02-04T06:43:14;102815.88;;;4.83;93.27
51359;BME280;37448;51.588;7.248;2023-02-04T06:45:15;102817.59;;;4.83;93.44
51359;BME280;37448;51.588;7.248;2023-02-04T06:47:15;102819.28;;;4.82;93.78
51359;BME280;37448;51.588;7.248;2023-02-04T06:49:15;102820.13;;;4.81;93.10
51359;BME280;37448;51.588;7.248;2023-02-04T06:51:16;102820.03;;;4.80;92.44
51359;BME280;37448;51.588;7.248;2023-02-04T06:53:16;102828.63;;;4.79;92.79
51359;BME280;37448;51.588;7.248;2023-02-04T06:55:16;102828.63;;;4.79;93.29
51359;BME280;37448;51.588;7.248;2023-02-04T06:57:17;102829.53;;;4.79;92.75
51359;BME280;37448;51.588;7.248;2023-02-04T06:59:17;102828.59;;;4.77;93.32
51359;BME280;37448;51.588;7.248;2023-02-04T07:01:17;102826.00;;;4.77;93.13
51359;BME280;37448;51.588;7.248;2023-02-04T07:03:18;102833.81;;;4.79;93.39
51359;BME280;37448;51.588;7.248;2023-02-04T07:05:18;102831.31;;;4.80;93.05
51359;BME280;37448;51.588;7.248;2023-02-04T07:07:19;102832.94;;;4.78;93.27
51359;BME280;37448;51.588;7.248;2023-02-04T07:09:19;102836.47;;;4.80;93.70
51359;BME280;37448;51.588;7.248;2023-02-04T07:11:20;102832.94;;;4.78;93.54
51359;BME280;37448;51.588;7.248;2023-02-04T07:13:20;102839.81;;;4.78;93.46
51359;BME280;37448;51.588;7.248;2023-02-04T07:15:20;102843.19;;;4.75;92.95
51359;BME280;37448;51.588;7.248;2023-02-04T07:17:21;102847.53;;;4.76;92.60
51359;BME280;37448;51.588;7.248;2023-02-04T07:19:22;102851.00;;;4.77;92.62
51359;BME280;37448;51.588;7.248;2023-02-04T07:21:22;102858.72;;;4.75;92.92
51359;BME280;37448;51.588;7.248;2023-02-04T07:23:23;102856.19;;;4.77;93.09
51359;BME280;37448;51.588;7.248;2023-02-04T07:25:24;102858.72;;;4.75;92.32
51359;BME280;37448;51.588;7.248;2023-02-04T07:27:25;102860.59;;;4.79;93.18
51359;BME280;37448;51.588;7.248;2023-02-04T07:29:25;102862.25;;;4.77;92.61
51359;BME280;37448;51.588;7.248;2023-02-04T07:31:25;102860.50;;;4.76;92.15
51359;BME280;37448;51.588;7.248;2023-02-04T07:33:26;102858.84;;;4.78;92.27
51359;BME280;37448;51.588;7.248;2023-02-04T07:35:26;102866.66;;;4.80;92.26
51359;BME280;37448;51.588;7.248;2023-02-04T07:37:26;102864.13;;;4.81;92.37
51359;BME280;37448;51.588;7.248;2023-02-04T07:39:27;102871.06;;;4.82;92.70
51359;BME280;37448;51.588;7.248;2023-02-04T07:41:27;102875.50;;;4.85;93.28
51359;BME280;37448;51.588;7.248;2023-02-04T07:43:28;102877.19;;;4.84;92.34
51359;BME280;37448;51.588;7.248;2023-02-04T07:45:28;102879.88;;;4.87;92.79
51359;BME280;37448;51.588;7.248;2023-02-04T07:47:28;102877.25;;;4.86;92.22
51359;BME280;37448;51.588;7.248;2023-02-04T07:49:29;102883.41;;;4.89;92.91
51359;BME280;37448;51.588;7.248;2023-02-04T07:51:29;102883.41;;;4.89;92.73
51359;BME280;37448;51.588;7.248;2023-02-04T07:53:30;102882.59;;;4.91;93.35
51359;BME280;37448;51.588;7.248;2023-02-04T07:55:30;102887.84;;;4.92;92.76
51359;BME280;37448;51.588;7.248;2023-02-04T07:57:34;102886.19;;;4.94;93.79
51359;BME280;37448;51.588;7.248;2023-02-04T07:59:34;102880.91;;;4.91;93.31
51359;BME280;37448;51.588;7.248;2023-02-04T08:01:35;102880.13;;;4.94;93.49
51359;BME280;37448;51.588;7.248;2023-02-04T08:03:35;102876.78;;;4.96;94.18
51359;BME280;37448;51.588;7.248;2023-02-04T08:05:35;102888.06;;;4.98;93.78
51359;BME280;37448;51.588;7.248;2023-02-04T08:07:36;102882.88;;;4.98;94.46
51359;BME280;37448;51.588;7.248;2023-02-04T08:09:36;102882.16;;;5.02;94.42
51359;BME280;37448;51.588;7.248;2023-02-04T08:11:37;102883.19;;;5.06;94.35
51359;BME280;37448;51.588;7.248;2023-02-04T08:13:37;102885.06;;;5.10;94.83
51359;BME280;37448;51.588;7.248;2023-02-04T08:15:37;102890.34;;;5.13;94.90
51359;BME280;37448;51.588;7.248;2023-02-04T08:17:38;102890.41;;;5.15;95.67
51359;BME280;37448;51.588;7.248;2023-02-04T08:19:38;102901.66;;;5.15;95.57
51359;BME280;37448;51.588;7.248;2023-02-04T08:21:38;102901.78;;;5.19;95.99
51359;BME280;37448;51.588;7.248;2023-02-04T08:23:39;102913.91;;;5.20;95.58
51359;BME280;37448;51.588;7.248;2023-02-04T08:25:40;102910.50;;;5.21;96.00
51359;BME280;37448;51.588;7.248;2023-02-04T08:27:41;102920.13;;;5.25;95.71
51359;BME280;37448;51.588;7.248;2023-02-04T08:29:42;102912.38;;;5.25;96.06
51359;BME280;37448;51.588;7.248;2023-02-04T08:31:42;102918.41;;;5.25;96.14
51359;BME280;37448;51.588;7.248;2023-02-04T08:33:42;102928.13;;;5.31;96.13
51359;BME280;37448;51.588;7.248;2023-02-04T08:35:43;102935.25;;;5.37;96.28
51359;BME280;37448;51.588;7.248;2023-02-04T08:37:43;102937.06;;;5.39;95.93
51359;BME280;37448;51.588;7.248;2023-02-04T08:39:43;102944.25;;;5.46;96.60
51359;BME280;37448;51.588;7.248;2023-02-04T08:42:12;102947.94;;;5.53;96.93
51359;BME280;37448;51.588;7.248;2023-02-04T08:44:12;102949.03;;;5.60;97.00
51359;BME280;37448;51.588;7.248;2023-02-04T08:46:12;102954.44;;;5.66;97.19
51359;BME280;37448;51.588;7.248;2023-02-04T08:48:13;102957.16;;;5.69;96.20
51359;BME280;37448;51.588;7.248;2023-02-04T08:50:13;102955.78;;;5.79;96.47
51359;BME280;37448;51.588;7.248;2023-02-04T08:52:14;102958.81;;;5.92;96.43
51359;BME280;37448;51.588;7.248;2023-02-04T08:54:14;102954.72;;;5.98;96.07
51359;BME280;37448;51.588;7.248;2023-02-04T08:56:14;102955.72;;;6.02;96.36
51359;BME280;37448;51.588;7.248;2023-02-04T08:58:17;102956.78;;;6.07;95.51
51359;BME280;37448;51.588;7.248;2023-02-04T09:00:17;102964.66;;;6.10;94.80
51359;BME280;37448;51.588;7.248;2023-02-04T09:02:18;102959.47;;;6.10;91.30
51359;BME280;37448;51.588;7.248;2023-02-04T09:04:18;102948.81;;;6.28;93.09
51359;BME280;37448;51.588;7.248;2023-02-04T09:06:19;102954.31;;;6.38;93.40
51359;BME280;37448;51.588;7.248;2023-02-04T09:08:19;102952.97;;;6.49;94.08
51359;BME280;37448;51.588;7.248;2023-02-04T09:10:20;102962.09;;;6.64;94.89
51359;BME280;37448;51.588;7.248;2023-02-04T09:12:20;102960.13;;;6.56;93.49
51359;BME280;37448;51.588;7.248;2023-02-04T09:14:20;102963.53;;;6.55;92.24
51359;BME280;37448;51.588;7.248;2023-02-04T09:16:21;102963.03;;;6.66;94.20
51359;BME280;37448;51.588;7.248;2023-02-04T09:18:21;102968.34;;;6.70;94.29
51359;BME280;37448;51.588;7.248;2023-02-04T09:20:24;102962.38;;;6.73;93.73
51359;BME280;37448;51.588;7.248;2023-02-04T09:22:24;102969.53;;;6.80;93.47
51359;BME280;37448;51.588;7.248;2023-02-04T09:24:24;102975.69;;;6.84;92.49
51359;BME280;37448;51.588;7.248;2023-02-04T09:26:25;102968.00;;;6.87;91.93
51359;BME280;37448;51.588;7.248;2023-02-04T09:28:25;102972.44;;;6.89;91.73
51359;BME280;37448;51.588;7.248;2023-02-04T09:30:26;102979.31;;;6.89;92.00
51359;BME280;37448;51.588;7.248;2023-02-04T09:32:26;102977.88;;;6.70;85.91
51359;BME280;37448;51.588;7.248;2023-02-04T09:34:26;102976.38;;;6.78;88.70
51359;BME280;37448;51.588;7.248;2023-02-04T09:36:27;102965.25;;;6.82;89.03
51359;BME280;37448;51.588;7.248;2023-02-04T09:38:29;102967.84;;;6.82;90.20
51359;BME280;37448;51.588;7.248;2023-02-04T09:40:35;102974.88;;;6.85;91.29
51359;BME280;37448;51.588;7.248;2023-02-04T09:42:37;102979.91;;;6.80;89.76
51359;BME280;37448;51.588;7.248;2023-02-04T09:44:37;102982.69;;;6.86;92.23
51359;BME280;37448;51.588;7.248;2023-02-04T09:46:38;102982.59;;;6.83;90.41
51359;BME280;37448;51.588;7.248;2023-02-04T09:48:39;102988.63;;;6.82;91.11
51359;BME280;37448;51.588;7.248;2023-02-04T09:50:39;102985.19;;;6.83;91.24
51359;BME280;37448;51.588;7.248;2023-02-04T09:52:41;102986.13;;;6.85;91.71
51359;BME280;37448;51.588;7.248;2023-02-04T09:54:41;102981.06;;;6.88;92.50
51359;BME280;37448;51.588;7.248;2023-02-04T09:56:42;102993.22;;;6.91;92.55
51359;BME280;37448;51.588;7.248;2023-02-04T09:58:42;102999.41;;;6.95;93.26
51359;BME280;37448;51.588;7.248;2023-02-04T10:00:49;103004.63;;;6.95;92.09
51359;BME280;37448;51.588;7.248;2023-02-04T10:02:51;103004.78;;;6.99;92.04
51359;BME280;37448;51.588;7.248;2023-02-04T10:04:55;103005.06;;;7.10;91.83
51359;BME280;37448;51.588;7.248;2023-02-04T10:06:57;103005.97;;;7.11;91.11
51359;BME280;37448;51.588;7.248;2023-02-04T10:09:00;103011.84;;;7.05;88.77
51359;BME280;37448;51.588;7.248;2023-02-04T10:11:00;103012.94;;;7.12;90.51
51359;BME280;37448;51.588;7.248;2023-02-04T10:13:01;103015.59;;;7.13;89.92
51359;BME280;37448;51.588;7.248;2023-02-04T10:15:03;103016.19;;;7.04;86.92
51359;BME280;37448;51.588;7.248;2023-02-04T10:17:08;103019.28;;;7.22;89.10
51359;BME280;37448;51.588;7.248;2023-02-04T10:19:15;103013.53;;;7.32;89.17
51359;BME280;37448;51.588;7.248;2023-02-04T10:21:26;103016.84;;;7.57;92.24
51359;BME280;37448;51.588;7.248;2023-02-04T10:23:27;103016.13;;;7.61;90.05
51359;BME280;37448;51.588;7.248;2023-02-04T10:25:27;103014.38;;;7.60;89.67
51359;BME280;37448;51.588;7.248;2023-02-04T10:27:28;103009.97;;;7.59;89.92
51359;BME280;37448;51.588;7.248;2023-02-04T10:29:31;103011.75;;;7.60;89.84
51359;BME280;37448;51.588;7.248;2023-02-04T10:33:34;103015.28;;;7.62;85.49
51359;BME280;37448;51.588;7.248;2023-02-04T10:35:44;103020.91;;;7.78;89.09
51359;BME280;37448;51.588;7.248;2023-02-04T10:37:45;103014.00;;;7.78;88.56
51359;BME280;37448;51.588;7.248;2023-02-04T10:39:46;103010.50;;;7.78;84.96
51359;BME280;37448;51.588;7.248;2023-02-04T10:41:51;103015.31;;;7.94;89.51
51359;BME280;37448;51.588;7.248;2023-02-04T10:44:11;103005.81;;;7.96;90.21
51359;BME280;37448;51.588;7.248;2023-02-04T10:46:18;103012.41;;;7.83;84.00